Time;durP1;ratioP1;P1;durP2;ratioP2;P2;SDS_P1;SDS_P2;PMS_P1;PMS_P2;Temp;Humidity;BMP_temperature;BMP_pressure;BME280_temperature;BME280_humidity;BME280_pressure;Samples;Min_cycle;Max_cycle;Signal;HPM_P1;HPM_P2
2022/04/02 00:01:47;;;;;;;;;37.75;35.00;15.50;82.50;;;;;;4937182;29;8798;-58
2022/04/02 00:04:13;;;;;;;;;40.25;35.00;15.70;80.10;;;;;;4937064;29;8893;-59
2022/04/02 00:06:39;;;;;;;;;42.75;37.50;15.80;80.50;;;;;;4936957;29;9418;-58
2022/04/02 00:09:05;;;;;;;;;50.75;40.75;15.80;80.10;;;;;;4940343;29;8909;-59
2022/04/02 00:11:31;;;;;;;;;47.25;39.50;15.90;79.80;;;;;;4954092;29;8788;-58
2022/04/02 00:13:58;;;;;;;;;40.25;35.00;16.00;78.40;;;;;;4942287;28;8810;-59
2022/04/02 00:16:24;;;;;;;;;45.25;38.00;15.60;82.00;;;;;;4936739;29;8858;-59
2022/04/02 00:18:50;;;;;;;;;42.25;35.00;15.60;79.70;;;;;;4936880;29;8887;-59
2022/04/02 00:21:19;;;;;;;;;38.00;34.00;15.50;80.20;;;;;;4937062;29;8810;-58
2022/04/02 00:23:46;;;;;;;;;38.25;36.75;15.50;79.20;;;;;;4936744;29;8841;-58
2022/04/02 00:26:22;;;;;;;;;50.00;40.75;15.50;81.90;;;;;;4947567;29;8796;-57
2022/04/02 00:28:49;;;;;;;;;42.50;36.50;15.30;87.10;;;;;;4936730;29;8807;-58
2022/04/02 00:31:17;;;;;;;;;49.50;41.00;15.40;87.30;;;;;;4935682;29;8803;-58
2022/04/02 00:33:45;;;;;;;;;46.75;38.50;15.30;90.10;;;;;;4936664;29;8787;-59
2022/04/02 00:36:12;;;;;;;;;43.00;37.75;15.50;84.80;;;;;;4936940;29;8867;-58
2022/04/02 00:38:42;;;;;;;;;39.25;36.00;15.80;81.40;;;;;;4936904;29;8822;-58
2022/04/02 00:41:08;;;;;;;;;43.00;37.00;15.40;83.90;;;;;;4937183;29;8799;-59
2022/04/02 00:43:39;;;;;;;;;47.50;38.75;15.60;84.10;;;;;;4940095;29;8917;-59
2022/04/02 00:46:07;;;;;;;;;46.00;37.00;15.90;79.00;;;;;;4940279;29;8827;-58
2022/04/02 00:48:33;;;;;;;;;48.75;40.00;15.70;79.70;;;;;;4939371;28;8783;-57
2022/04/02 00:51:01;;;;;;;;;57.00;46.75;15.20;90.20;;;;;;4939920;29;8917;-59
2022/04/02 00:53:33;;;;;;;;;51.50;43.50;15.10;92.60;;;;;;4940016;29;8771;-58
2022/04/02 00:55:59;;;;;;;;;53.25;45.00;14.60;99.90;;;;;;4939933;29;8806;-58
2022/04/02 00:58:25;;;;;;;;;48.25;41.25;15.00;99.90;;;;;;4939900;29;8805;-58
2022/04/02 01:00:52;;;;;;;;;47.00;40.50;15.60;94.00;;;;;;4939909;29;8911;-58
2022/04/02 01:03:18;;;;;;;;;45.00;38.25;15.90;86.40;;;;;;4939768;29;8906;-58
2022/04/02 01:05:44;;;;;;;;;41.00;34.50;16.00;82.90;;;;;;4939773;29;8807;-58
2022/04/02 01:08:10;;;;;;;;;30.25;29.00;15.70;81.70;;;;;;4939961;29;8877;-58
2022/04/02 01:10:41;;;;;;;;;36.50;34.75;15.30;90.10;;;;;;4939881;29;9481;-58
2022/04/02 01:13:08;;;;;;;;;32.50;30.75;14.60;99.90;;;;;;4939666;29;8894;-57
2022/04/02 01:15:35;;;;;;;;;47.75;40.75;13.90;99.90;;;;;;4939638;29;8846;-59
2022/04/02 01:18:01;;;;;;;;;44.00;36.50;13.60;99.90;;;;;;4939777;29;8821;-58
2022/04/02 01:20:29;;;;;;;;;49.50;41.50;13.30;99.90;;;;;;4939525;29;8841;-58
2022/04/02 01:22:56;;;;;;;;;41.75;38.50;13.30;99.90;;;;;;4939363;29;8794;-58
2022/04/02 01:25:22;;;;;;;;;49.50;40.00;13.50;99.90;;;;;;4939436;29;8797;-59
2022/04/02 01:27:49;;;;;;;;;53.00;43.50;13.30;99.90;;;;;;4939664;29;9477;-58
2022/04/02 01:30:15;;;;;;;;;50.25;42.25;13.80;99.90;;;;;;4939302;29;8783;-58
2022/04/02 01:32:42;;;;;;;;;51.00;42.50;13.10;99.90;;;;;;4939320;29;8797;-58
2022/04/02 01:35:10;;;;;;;;;55.00;45.50;13.30;99.90;;;;;;4939514;29;9450;-58
2022/04/02 01:37:37;;;;;;;;;54.50;43.75;12.90;99.90;;;;;;4939254;29;8806;-57
2022/04/02 01:40:05;;;;;;;;;55.00;46.00;13.00;99.90;;;;;;4939136;29;8909;-58
2022/04/02 01:42:31;;;;;;;;;50.50;41.75;13.50;99.90;;;;;;4938107;29;8795;-58
2022/04/02 01:44:57;;;;;;;;;55.75;45.00;13.20;99.90;;;;;;4938883;29;8861;-58
2022/04/02 01:47:23;;;;;;;;;61.75;50.75;13.30;99.90;;;;;;4938999;29;8854;-58
2022/04/02 01:49:49;;;;;;;;;55.00;45.50;13.10;99.90;;;;;;4938923;29;8910;-58
2022/04/02 01:52:17;;;;;;;;;47.00;39.75;12.40;99.90;;;;;;4938588;29;8909;-57
2022/04/02 01:54:47;;;;;;;;;50.25;42.50;12.40;99.90;;;;;;4938633;29;8862;-58
2022/04/02 01:57:13;;;;;;;;;53.75;43.25;12.30;99.90;;;;;;4938883;29;8779;-58
2022/04/02 01:59:40;;;;;;;;;47.50;41.00;12.30;99.90;;;;;;4938874;29;8795;-57
2022/04/02 02:02:07;;;;;;;;;46.25;38.50;12.70;99.90;;;;;;4938762;29;8790;-57
2022/04/02 02:04:33;;;;;;;;;38.00;35.25;13.00;99.90;;;;;;4938621;29;8815;-58
2022/04/02 02:07:00;;;;;;;;;45.75;39.00;12.90;99.90;;;;;;4938665;29;8799;-57
2022/04/02 02:09:26;;;;;;;;;42.00;36.50;12.80;99.90;;;;;;4938661;29;8779;-58
2022/04/02 02:11:52;;;;;;;;;41.75;36.50;12.90;99.90;;;;;;4938534;29;8799;-59
2022/04/02 02:14:18;;;;;;;;;41.00;37.25;13.20;99.90;;;;;;4938593;29;8787;-57
2022/04/02 02:16:44;;;;;;;;;46.50;38.50;13.30;99.90;;;;;;4938369;29;8898;-59
2022/04/02 02:19:10;;;;;;;;;43.00;39.00;13.60;99.90;;;;;;4938424;29;8790;-59
2022/04/02 02:21:35;;;;;;;;;42.50;35.25;13.60;99.90;;;;;;4938427;29;8913;-58
2022/04/02 02:24:02;;;;;;;;;52.50;43.25;13.20;99.90;;;;;;4938572;29;8837;-59
2022/04/02 02:26:28;;;;;;;;;49.75;42.00;13.00;99.90;;;;;;4938288;29;8857;-59
2022/04/02 02:28:53;;;;;;;;;51.25;43.00;12.50;99.90;;;;;;4938223;29;8827;-59
2022/04/02 02:31:19;;;;;;;;;47.25;40.50;12.30;99.90;;;;;;4938470;29;8783;-59
2022/04/02 02:36:29;;;;;;;;;50.00;41.25;12.30;99.90;;;;;;4938141;29;8770;-58
2022/04/02 02:38:56;;;;;;;;;51.00;44.00;12.20;99.90;;;;;;4938257;29;8813;-58
2022/04/02 02:41:22;;;;;;;;;45.50;39.25;12.00;99.90;;;;;;4937995;29;8806;-58
2022/04/02 02:43:48;;;;;;;;;44.00;36.50;11.90;99.90;;;;;;4938166;29;8798;-58
2022/04/02 02:46:17;;;;;;;;;49.25;39.50;12.00;99.90;;;;;;4937876;29;9477;-59
2022/04/02 02:48:46;;;;;;;;;47.25;39.75;12.30;99.90;;;;;;4938156;29;8791;-59
2022/04/02 02:51:12;;;;;;;;;52.25;42.25;12.30;99.90;;;;;;4937730;29;8818;-58
2022/04/02 02:53:38;;;;;;;;;44.75;38.00;11.90;99.90;;;;;;4936843;29;8813;-57
2022/04/02 02:56:04;;;;;;;;;47.25;39.25;11.80;99.90;;;;;;4937545;29;8814;-57
2022/04/02 02:58:30;;;;;;;;;46.25;38.50;11.80;99.90;;;;;;4937820;29;8794;-60
2022/04/02 03:00:56;;;;;;;;;53.50;42.00;12.10;99.90;;;;;;4937915;29;8798;-58
2022/04/02 03:03:22;;;;;;;;;44.75;38.00;12.10;99.90;;;;;;4937419;29;8822;-58
2022/04/02 03:05:49;;;;;;;;;53.50;43.50;12.40;99.90;;;;;;4937445;29;8813;-59
2022/04/02 03:08:16;;;;;;;;;45.25;40.25;12.40;99.90;;;;;;4937525;29;8791;-59
2022/04/02 03:10:44;;;;;;;;;55.75;42.75;12.40;99.90;;;;;;4937579;29;8802;-56
2022/04/02 03:13:10;;;;;;;;;37.25;33.25;12.30;99.90;;;;;;4937511;29;8798;-56
2022/04/02 03:15:37;;;;;;;;;53.25;41.75;12.50;99.90;;;;;;4937651;29;9508;-59
2022/04/02 03:18:08;;;;;;;;;53.75;43.00;12.20;99.90;;;;;;4937395;29;8782;-56
2022/04/02 03:20:36;;;;;;;;;49.25;42.50;12.40;99.90;;;;;;4937685;29;9483;-57
2022/04/02 03:23:03;;;;;;;;;52.00;43.50;12.60;99.90;;;;;;4937198;29;8821;-57
2022/04/02 03:25:29;;;;;;;;;56.00;44.25;12.20;99.90;;;;;;4937605;29;9589;-57
2022/04/02 03:27:56;;;;;;;;;40.75;34.25;12.40;99.90;;;;;;4937626;29;8975;-59
2022/04/02 03:30:23;;;;;;;;;54.00;43.25;12.40;99.90;;;;;;4937553;29;8798;-57
2022/04/02 03:32:50;;;;;;;;;50.75;42.25;12.60;99.90;;;;;;4937474;29;8771;-57
2022/04/02 03:35:18;;;;;;;;;50.50;42.25;12.40;99.90;;;;;;4937546;29;8805;-57
2022/04/02 03:37:46;;;;;;;;;50.50;43.50;12.90;99.90;;;;;;4937175;29;8786;-57
2022/04/02 03:40:15;;;;;;;;;52.75;44.25;13.00;99.90;;;;;;4939920;28;8771;-57
2022/04/02 03:42:42;;;;;;;;;55.75;44.50;12.90;99.90;;;;;;4950357;28;8814;-58
2022/04/02 03:45:09;;;;;;;;;46.25;38.00;12.60;99.90;;;;;;4953537;28;8801;-55
2022/04/02 03:47:35;;;;;;;;;53.25;44.00;12.70;99.90;;;;;;4956217;28;8788;-57
2022/04/02 03:50:01;;;;;;;;;49.25;41.75;12.70;99.90;;;;;;4956231;28;8858;-56
2022/04/02 03:52:27;;;;;;;;;52.75;41.50;12.50;99.90;;;;;;4956432;29;8855;-57
2022/04/02 03:54:54;;;;;;;;;55.25;46.00;12.40;99.90;;;;;;4956217;29;8799;-58
2022/04/02 03:57:20;;;;;;;;;53.75;41.50;12.60;99.90;;;;;;4956415;28;8828;-58
2022/04/02 03:59:46;;;;;;;;;56.00;44.50;12.50;99.90;;;;;;4956244;28;8772;-57
2022/04/02 04:02:12;;;;;;;;;49.75;38.75;12.70;99.90;;;;;;4956463;28;8776;-57
2022/04/02 04:04:39;;;;;;;;;52.25;45.00;13.00;99.90;;;;;;4956434;29;9453;-56
2022/04/02 04:07:06;;;;;;;;;56.25;47.00;12.80;99.90;;;;;;4956039;29;8796;-57
2022/04/02 04:09:33;;;;;;;;;59.75;48.50;12.90;99.90;;;;;;4956257;29;9435;-58
2022/04/02 04:11:59;;;;;;;;;52.25;44.25;12.70;99.90;;;;;;4956056;29;8800;-56
2022/04/02 04:14:26;;;;;;;;;53.50;43.50;12.60;99.90;;;;;;4956084;28;8792;-58
2022/04/02 04:16:54;;;;;;;;;57.50;47.50;12.40;99.90;;;;;;4957837;28;8907;-57
2022/04/02 04:19:21;;;;;;;;;54.50;43.00;12.50;99.90;;;;;;4959988;28;8882;-56
2022/04/02 04:21:47;;;;;;;;;52.75;42.50;12.70;99.90;;;;;;4959941;28;8907;-58
2022/04/02 04:24:14;;;;;;;;;57.75;46.00;12.90;99.90;;;;;;4957527;28;8835;-57
2022/04/02 04:26:42;;;;;;;;;58.50;49.00;12.70;99.90;;;;;;4949486;28;8808;-57
2022/04/02 04:29:08;;;;;;;;;56.00;46.25;12.40;99.90;;;;;;4959367;28;8843;-58
2022/04/02 04:31:34;;;;;;;;;55.00;45.50;12.40;99.90;;;;;;4958133;28;8858;-56
2022/04/02 04:34:00;;;;;;;;;57.00;47.50;12.60;99.90;;;;;;4959563;28;8890;-56
2022/04/02 04:36:25;;;;;;;;;56.25;45.50;12.60;99.90;;;;;;4959776;28;8883;-57
2022/04/02 04:38:52;;;;;;;;;58.25;47.00;12.30;99.90;;;;;;4953803;29;8807;-57
2022/04/02 04:41:18;;;;;;;;;53.75;46.00;11.60;99.90;;;;;;4947496;29;8839;-58
2022/04/02 04:43:48;;;;;;;;;58.25;47.50;11.70;99.90;;;;;;4949891;29;8834;-58
2022/04/02 04:46:15;;;;;;;;;57.50;49.00;11.70;99.90;;;;;;4940456;29;8817;-58
2022/04/02 04:48:42;;;;;;;;;59.50;47.00;11.40;99.90;;;;;;4940058;29;8791;-58
2022/04/02 04:51:09;;;;;;;;;67.50;54.50;11.20;99.90;;;;;;4939870;29;8818;-57
2022/04/02 04:53:35;;;;;;;;;55.50;47.50;11.10;99.90;;;;;;4940030;29;9516;-57
2022/04/02 04:56:01;;;;;;;;;58.25;47.50;10.90;99.90;;;;;;4939966;29;8787;-59
2022/04/02 04:58:30;;;;;;;;;57.75;47.75;10.80;99.90;;;;;;4940189;29;8866;-59
2022/04/02 05:00:57;;;;;;;;;61.00;50.50;10.70;99.90;;;;;;4938198;29;8794;-58
2022/04/02 05:03:24;;;;;;;;;60.50;48.25;10.60;99.90;;;;;;4940001;29;8826;-58
2022/04/02 05:05:50;;;;;;;;;56.00;48.00;10.80;99.90;;;;;;4945126;28;9470;-58
2022/04/02 05:08:17;;;;;;;;;52.50;43.00;10.80;99.90;;;;;;4952693;28;9557;-57
2022/04/02 05:10:42;;;;;;;;;61.00;50.25;11.10;99.90;;;;;;4939761;29;8771;-57
2022/04/02 05:13:12;;;;;;;;;68.50;53.50;11.00;99.90;;;;;;4939850;29;8853;-57
2022/04/02 05:15:40;;;;;;;;;73.75;58.50;11.10;99.90;;;;;;4939796;29;8825;-57
2022/04/02 05:18:06;;;;;;;;;62.50;50.50;11.20;99.90;;;;;;4939501;29;8787;-57
2022/04/02 05:20:32;;;;;;;;;64.50;51.25;11.30;99.90;;;;;;4939482;29;8866;-58
2022/04/02 05:22:58;;;;;;;;;56.50;46.50;11.00;99.90;;;;;;4939473;29;8787;-57
2022/04/02 05:25:24;;;;;;;;;60.00;50.25;11.10;99.90;;;;;;4939293;29;8928;-57
2022/04/02 05:27:49;;;;;;;;;55.50;45.00;11.40;99.90;;;;;;4937892;29;8834;-57
2022/04/02 05:30:15;;;;;;;;;53.75;42.00;11.70;99.90;;;;;;4939289;29;8802;-58
2022/04/02 05:32:41;;;;;;;;;60.50;49.25;11.70;99.90;;;;;;4939316;29;8809;-57
2022/04/02 05:35:07;;;;;;;;;53.00;42.75;11.50;99.90;;;;;;4939228;29;8799;-57
2022/04/02 05:37:33;;;;;;;;;54.00;45.00;11.60;99.90;;;;;;4939125;29;8817;-57
2022/04/02 05:39:59;;;;;;;;;54.00;44.50;11.70;99.90;;;;;;4939215;29;8791;-58
2022/04/02 05:42:26;;;;;;;;;51.75;44.25;12.00;99.90;;;;;;4945149;29;8802;-57
2022/04/02 05:44:54;;;;;;;;;53.25;43.75;11.80;99.90;;;;;;4954997;28;8862;-58
2022/04/02 05:47:20;;;;;;;;;48.75;43.00;11.60;99.90;;;;;;4946113;28;8811;-59
2022/04/02 05:49:51;;;;;;;;;55.75;43.75;11.70;99.90;;;;;;4938839;29;8839;-59
2022/04/02 05:52:17;;;;;;;;;48.75;40.75;11.60;99.90;;;;;;4939063;29;8803;-58
2022/04/02 05:54:43;;;;;;;;;52.00;42.00;12.00;99.90;;;;;;4938956;29;8798;-59
2022/04/02 05:57:09;;;;;;;;;53.75;45.50;12.60;99.90;;;;;;4938943;29;8853;-59
2022/04/02 05:59:35;;;;;;;;;51.75;43.00;13.10;99.90;;;;;;4939115;29;9445;-58
2022/04/02 06:02:01;;;;;;;;;56.00;45.25;13.00;99.90;;;;;;4947400;28;8830;-57
2022/04/02 06:04:28;;;;;;;;;54.25;45.25;13.00;99.90;;;;;;4957859;28;8824;-58
2022/04/02 06:06:54;;;;;;;;;53.75;41.25;13.00;99.90;;;;;;4949386;29;8813;-58
2022/04/02 06:09:20;;;;;;;;;52.00;43.50;13.00;99.90;;;;;;4938801;29;8779;-57
2022/04/02 06:11:45;;;;;;;;;56.50;46.00;13.10;99.90;;;;;;4938518;29;9633;-58
2022/04/02 06:14:13;;;;;;;;;58.00;46.00;13.20;99.90;;;;;;4938623;29;8787;-57
2022/04/02 06:16:39;;;;;;;;;57.75;46.50;12.60;99.90;;;;;;4938528;29;8809;-58
2022/04/02 06:19:05;;;;;;;;;58.00;46.00;12.30;99.90;;;;;;4953717;28;8998;-57
2022/04/02 06:21:31;;;;;;;;;56.75;45.75;12.30;99.90;;;;;;4957570;28;8769;-58
2022/04/02 06:23:57;;;;;;;;;66.25;52.75;12.10;99.90;;;;;;4957463;28;8858;-58
2022/04/02 06:26:23;;;;;;;;;57.75;47.75;12.10;99.90;;;;;;4957430;28;8812;-58
2022/04/02 06:28:49;;;;;;;;;57.50;47.50;12.00;99.90;;;;;;4950712;28;8803;-58
2022/04/02 06:31:14;;;;;;;;;63.75;51.50;11.90;99.90;;;;;;4950385;28;8814;-58
2022/04/02 06:33:40;;;;;;;;;57.00;45.50;12.20;99.90;;;;;;4957337;28;9478;-59
2022/04/02 06:36:07;;;;;;;;;60.00;50.00;12.00;99.90;;;;;;4957302;28;8866;-59
2022/04/02 06:38:34;;;;;;;;;59.75;48.75;11.50;99.90;;;;;;4988005;28;8781;-59
2022/04/02 06:41:00;;;;;;;;;59.00;48.50;11.50;99.90;;;;;;4956981;28;8811;-58
2022/04/02 06:43:26;;;;;;;;;57.50;46.50;11.40;99.90;;;;;;4957104;28;8938;-60
2022/04/02 06:45:52;;;;;;;;;62.50;51.00;11.60;99.90;;;;;;4957147;28;8805;-59
2022/04/02 06:48:18;;;;;;;;;65.25;52.50;12.00;99.90;;;;;;4956296;28;8807;-59
2022/04/02 06:50:43;;;;;;;;;63.25;50.75;11.70;99.90;;;;;;4952843;28;9499;-60
2022/04/02 06:53:10;;;;;;;;;71.25;57.00;11.40;99.90;;;;;;4939992;29;8917;-60
2022/04/02 06:55:36;;;;;;;;;67.25;53.50;11.60;99.90;;;;;;4938082;29;8798;-59
2022/04/02 06:58:02;;;;;;;;;70.00;55.25;11.30;99.90;;;;;;4938086;29;8902;-59
2022/04/02 07:00:28;;;;;;;;;71.50;56.50;11.40;99.90;;;;;;4939643;28;8804;-60
2022/04/02 07:02:54;;;;;;;;;73.25;59.00;11.60;99.90;;;;;;4957215;28;8812;-60
2022/04/02 07:05:20;;;;;;;;;69.25;55.00;11.30;99.90;;;;;;4952690;28;8815;-59
2022/04/02 07:07:47;;;;;;;;;73.25;58.50;11.40;99.90;;;;;;4948169;28;8812;-59
2022/04/02 07:10:15;;;;;;;;;70.00;55.50;11.20;99.90;;;;;;4937747;29;8783;-59
2022/04/02 07:12:41;;;;;;;;;60.00;48.25;11.60;99.90;;;;;;4953806;28;8803;-59
2022/04/02 07:15:08;;;;;;;;;67.50;52.75;11.40;99.90;;;;;;4949524;28;8922;-59
2022/04/02 07:17:34;;;;;;;;;68.00;54.50;11.80;99.90;;;;;;4956011;28;8820;-60
2022/04/02 07:20:01;;;;;;;;;71.00;54.50;11.40;99.90;;;;;;4956526;28;8788;-59
2022/04/02 07:22:27;;;;;;;;;72.25;56.25;11.70;99.90;;;;;;4948867;28;8876;-57
2022/04/02 07:24:55;;;;;;;;;68.50;55.00;11.50;99.90;;;;;;4944014;28;8823;-59
2022/04/02 07:27:22;;;;;;;;;85.75;67.50;11.40;99.90;;;;;;4942774;28;8833;-59
2022/04/02 07:29:56;;;;;;;;;67.50;54.00;11.50;99.90;;;;;;4945402;28;8810;-63
2022/04/02 07:32:23;;;;;;;;;71.75;57.25;11.40;99.90;;;;;;4937058;29;8795;-62
2022/04/02 07:34:49;;;;;;;;;88.00;76.25;11.50;99.90;;;;;;4937113;29;8802;-62
2022/04/02 07:37:40;;;;;;;;;84.75;69.75;11.80;99.90;;;;;;4939427;28;8914;-64
2022/04/02 07:40:14;;;;;;;;;68.00;53.00;12.30;99.90;;;;;;4947502;29;8821;-62
2022/04/02 07:43:12;;;;;;;;;77.00;61.25;12.50;99.90;;;;;;4960326;28;8881;-63
2022/04/02 07:45:45;;;;;;;;;71.50;55.75;12.30;99.90;;;;;;4970109;28;8822;-63
2022/04/02 07:48:12;;;;;;;;;72.25;58.25;12.30;99.90;;;;;;4947874;28;8812;-64
2022/04/02 07:50:44;;;;;;;;;73.00;59.50;12.90;99.90;;;;;;4942678;29;8823;-65
2022/04/02 07:53:24;;;;;;;;;74.00;57.00;13.00;99.90;;;;;;4942964;28;8853;-66
2022/04/02 07:55:56;;;;;;;;;67.00;51.50;12.80;99.90;;;;;;4947055;29;8823;-65
2022/04/02 07:58:28;;;;;;;;;68.75;55.00;13.30;99.90;;;;;;4944719;28;8799;-65
2022/04/02 08:00:56;;;;;;;;;66.25;54.75;13.60;99.90;;;;;;4945842;29;9502;-66
2022/04/02 08:03:24;;;;;;;;;67.75;53.00;13.40;99.90;;;;;;4947740;28;8815;-69
2022/04/02 08:05:53;;;;;;;;;68.25;53.50;13.80;99.90;;;;;;4956008;28;8796;-68
2022/04/02 08:08:20;;;;;;;;;69.50;55.25;13.40;99.90;;;;;;4956210;29;8776;-65
2022/04/02 08:10:51;;;;;;;;;68.25;54.50;13.40;99.90;;;;;;4955956;29;8887;-67
2022/04/02 08:13:16;;;;;;;;;76.25;59.00;12.80;99.90;;;;;;4972564;28;8774;-67
2022/04/02 08:15:42;;;;;;;;;78.50;60.75;12.70;99.90;;;;;;4975216;28;8789;-67
2022/04/02 08:18:09;;;;;;;;;71.00;56.25;12.20;99.90;;;;;;4975163;28;8790;-66
2022/04/02 08:20:34;;;;;;;;;67.50;54.75;12.20;99.90;;;;;;4974148;28;8805;-66
2022/04/02 08:23:01;;;;;;;;;72.75;58.75;12.50;99.90;;;;;;4947465;29;9516;-65
2022/04/02 08:25:27;;;;;;;;;69.00;55.50;12.70;99.90;;;;;;4942777;28;8831;-66
2022/04/02 08:28:13;;;;;;;;;67.25;55.00;12.90;99.90;;;;;;4944311;29;8816;-66
2022/04/02 08:30:47;;;;;;;;;68.75;53.50;12.80;99.90;;;;;;4949795;29;8842;-67
2022/04/02 08:33:56;;;;;;;;;68.00;53.25;12.20;99.90;;;;;;4939686;29;8806;-66
2022/04/02 08:36:42;;;;;;;;;72.25;58.25;12.40;99.90;;;;;;4923822;29;8811;-61
2022/04/02 08:39:30;;;;;;;;;66.50;55.00;11.80;99.90;;;;;;4915546;29;8798;-68
2022/04/02 08:42:33;;;;;;;;;62.25;51.25;11.70;99.90;;;;;;4928579;29;9576;-65
2022/04/02 08:45:04;;;;;;;;;62.75;52.50;12.00;99.90;;;;;;4923528;29;8839;-61
2022/04/02 08:47:33;;;;;;;;;56.50;46.25;12.80;99.90;;;;;;4923038;29;8802;-64
2022/04/02 08:50:13;;;;;;;;;61.00;51.00;12.50;99.90;;;;;;4926188;29;8851;-65
2022/04/02 08:52:47;;;;;;;;;55.75;44.75;12.30;99.90;;;;;;4915482;29;9469;-66
2022/04/02 08:55:18;;;;;;;;;61.00;49.50;12.40;99.90;;;;;;4915449;29;8771;-68
2022/04/02 08:57:53;;;;;;;;;70.50;54.00;11.90;99.90;;;;;;4915192;29;9026;-65
2022/04/02 09:00:24;;;;;;;;;69.00;53.00;11.90;99.90;;;;;;4915416;29;8830;-67
2022/04/02 09:03:11;;;;;;;;;72.75;58.00;12.00;99.90;;;;;;4919214;29;8812;-70
2022/04/02 09:06:10;;;;;;;;;81.00;66.00;12.10;99.90;;;;;;4925432;29;9462;-66
2022/04/02 09:08:48;;;;;;;;;79.75;68.00;11.70;99.90;;;;;;4943046;28;8909;-65
2022/04/02 09:11:26;;;;;;;;;81.00;65.50;11.80;99.90;;;;;;4947771;28;8809;-68
2022/04/02 09:14:24;;;;;;;;;82.00;64.50;11.30;99.90;;;;;;4952535;28;8953;-65
2022/04/02 09:17:22;;;;;;;;;86.25;73.75;11.70;99.90;;;;;;4941346;28;8937;-63
2022/04/02 09:20:12;;;;;;;;;86.00;74.75;11.20;99.90;;;;;;4926542;28;8951;-68
2022/04/02 09:22:59;;;;;;;;;88.50;74.50;11.70;99.90;;;;;;4952112;28;8788;-66
2022/04/02 09:26:12;;;;;;;;;83.75;68.50;12.40;99.90;;;;;;4953598;28;8844;-69
2022/04/02 09:29:09;;;;;;;;;79.50;63.50;12.20;99.90;;;;;;4947958;28;8781;-64
2022/04/02 09:32:06;;;;;;;;;85.25;73.25;12.50;99.90;;;;;;4955993;28;8796;-64
2022/04/02 09:35:00;;;;;;;;;71.00;55.75;12.30;99.90;;;;;;4945799;28;8802;-63
2022/04/02 09:38:03;;;;;;;;;69.25;56.00;12.70;99.90;;;;;;4946100;28;8797;-66
2022/04/02 09:40:41;;;;;;;;;62.50;47.75;12.40;99.90;;;;;;4948651;28;8796;-69
2022/04/02 09:43:24;;;;;;;;;70.25;54.25;12.40;99.90;;;;;;4967877;28;8790;-67
2022/04/02 09:46:13;;;;;;;;;61.25;50.50;12.30;99.90;;;;;;4948692;28;8780;-67
2022/04/02 09:49:06;;;;;;;;;61.50;50.75;12.10;99.90;;;;;;4958222;28;8883;-65
2022/04/02 09:51:41;;;;;;;;;55.25;44.75;12.00;99.90;;;;;;4930715;29;8831;-67
2022/04/02 09:54:21;;;;;;;;;53.50;43.00;12.20;99.90;;;;;;4919907;29;8787;-68
2022/04/02 09:56:56;;;;;;;;;55.25;44.75;12.40;99.90;;;;;;4920001;29;8830;-67
2022/04/02 09:59:45;;;;;;;;;61.25;48.25;12.60;99.90;;;;;;4920938;29;8767;-70
2022/04/02 10:02:32;;;;;;;;;63.75;49.25;11.90;99.90;;;;;;4929547;29;8790;-64
2022/04/02 10:05:07;;;;;;;;;65.50;51.25;12.10;99.90;;;;;;4921821;29;8927;-66
2022/04/02 10:07:54;;;;;;;;;59.50;49.00;12.50;99.90;;;;;;4931662;29;8823;-67
2022/04/02 10:10:28;;;;;;;;;58.00;46.75;12.40;99.90;;;;;;4919531;29;8775;-67
2022/04/02 10:12:55;;;;;;;;;63.00;51.50;12.20;99.90;;;;;;4924712;29;8866;-67
2022/04/02 10:15:23;;;;;;;;;59.50;47.25;12.30;99.90;;;;;;4935978;29;8847;-66
2022/04/02 10:17:54;;;;;;;;;57.25;47.75;12.20;99.90;;;;;;4931492;29;8800;-65
2022/04/02 10:20:28;;;;;;;;;54.00;43.50;12.30;99.90;;;;;;4929832;29;8893;-65
2022/04/02 10:23:16;;;;;;;;;68.25;54.25;13.00;99.90;;;;;;4926586;29;8803;-64
2022/04/02 10:26:01;;;;;;;;;60.50;48.25;13.00;99.90;;;;;;4930864;29;8805;-63
2022/04/02 10:28:32;;;;;;;;;62.75;49.75;12.80;99.90;;;;;;4919469;29;8819;-66
2022/04/02 10:31:00;;;;;;;;;61.25;48.50;12.90;99.90;;;;;;4926934;29;8793;-64
2022/04/02 10:33:30;;;;;;;;;61.00;49.00;13.30;99.90;;;;;;4928817;29;9505;-64
2022/04/02 10:35:57;;;;;;;;;58.00;47.75;13.60;99.90;;;;;;4929988;29;8795;-67
2022/04/02 10:38:37;;;;;;;;;61.75;50.25;12.80;99.90;;;;;;4929624;29;8812;-65
2022/04/02 10:41:09;;;;;;;;;60.25;50.00;12.90;99.90;;;;;;4932017;29;8821;-65
2022/04/02 10:43:58;;;;;;;;;64.00;48.00;12.60;99.90;;;;;;4926649;29;8881;-64
2022/04/02 10:46:25;;;;;;;;;59.75;48.75;12.60;99.90;;;;;;4930146;29;8824;-65
2022/04/02 10:48:55;;;;;;;;;64.00;50.00;12.90;99.90;;;;;;4933639;29;8791;-65
2022/04/02 10:51:25;;;;;;;;;66.50;52.00;13.30;99.90;;;;;;4925166;29;8894;-64
2022/04/02 10:54:01;;;;;;;;;64.50;51.25;13.10;99.90;;;;;;4933032;29;8785;-65
2022/04/02 10:56:33;;;;;;;;;58.25;46.50;13.90;99.90;;;;;;4937675;29;8817;-64
2022/04/02 10:59:00;;;;;;;;;66.00;52.00;14.90;99.90;;;;;;4937792;29;8788;-65
2022/04/02 11:01:26;;;;;;;;;61.25;49.00;15.60;99.90;;;;;;4937978;29;8879;-65
2022/04/02 11:03:57;;;;;;;;;60.50;49.75;15.90;99.90;;;;;;4937170;29;8821;-63
2022/04/02 11:06:45;;;;;;;;;62.00;51.00;16.10;99.90;;;;;;4926821;29;8793;-63
2022/04/02 11:09:51;;;;;;;;;61.25;50.00;16.90;77.40;;;;;;4921880;29;8796;-63
2022/04/02 11:12:19;;;;;;;;;58.25;47.00;16.80;73.90;;;;;;4853277;29;8802;-63
2022/04/02 11:14:49;;;;;;;;;53.75;44.25;16.50;73.40;;;;;;4859130;29;8845;-61
2022/04/02 11:17:32;;;;;;;;;62.50;49.75;15.00;90.60;;;;;;4860221;29;8813;-67
2022/04/02 11:20:08;;;;;;;;;55.50;45.25;15.00;94.90;;;;;;4823739;29;8783;-63
2022/04/02 11:22:55;;;;;;;;;58.50;49.25;15.20;92.30;;;;;;4832506;29;8788;-62
2022/04/02 11:25:31;;;;;;;;;54.75;46.00;14.80;93.70;;;;;;4840961;29;8850;-61
2022/04/02 11:28:11;;;;;;;;;57.50;44.75;15.00;96.50;;;;;;4841070;29;8839;-58
2022/04/02 11:30:40;;;;;;;;;71.25;55.75;14.70;72.80;;;;;;4859395;29;9511;-63
2022/04/02 11:33:26;;;;;;;;;56.25;44.25;14.80;77.30;;;;;;4843969;29;8809;-63
2022/04/02 11:36:06;;;;;;;;;51.75;42.75;15.80;71.30;;;;;;4842042;29;8836;-61
2022/04/02 11:38:31;;;;;;;;;53.00;43.25;17.00;69.30;;;;;;4855668;29;8848;-62
2022/04/02 11:41:15;;;;;;;;;55.50;45.00;18.20;61.30;;;;;;4857724;29;8837;-64
2022/04/02 11:43:44;;;;;;;;;46.75;38.25;18.40;57.00;;;;;;4855916;29;8892;-65
2022/04/02 11:46:12;;;;;;;;;61.00;48.50;18.00;59.00;;;;;;4893657;29;8914;-64
2022/04/02 11:48:56;;;;;;;;;59.75;48.25;17.70;59.90;;;;;;4923725;29;9438;-64
2022/04/02 11:51:30;;;;;;;;;63.25;50.25;17.20;60.40;;;;;;4922887;29;8818;-63
2022/04/02 11:54:14;;;;;;;;;61.00;47.50;16.40;60.00;;;;;;4923281;29;8787;-63
2022/04/02 11:56:44;;;;;;;;;52.50;42.25;15.10;67.70;;;;;;4936647;29;8813;-62
2022/04/02 11:59:16;;;;;;;;;54.25;44.75;12.70;78.80;;;;;;4932628;29;8885;-64
2022/04/02 12:01:43;;;;;;;;;49.50;39.00;11.40;99.90;;;;;;4936968;29;8876;-64
2022/04/02 12:04:16;;;;;;;;;48.75;39.50;10.60;99.90;;;;;;4936855;29;9416;-63
2022/04/02 12:06:47;;;;;;;;;24.50;24.50;10.00;99.90;;;;;;4936895;29;8773;-66
2022/04/02 12:09:18;;;;;;;;;16.33;15.00;9.70;99.90;;;;;;4935428;29;8792;-64
2022/04/02 12:11:55;;;;;;;;;21.75;20.75;9.20;99.90;;;;;;4924575;29;8808;-63
2022/04/02 12:14:41;;;;;;;;;19.50;18.75;8.80;99.90;;;;;;4928054;29;8900;-64
2022/04/02 12:17:11;;;;;;;;;14.00;14.00;8.60;99.90;;;;;;4918162;29;8794;-63
2022/04/02 12:19:42;;;;;;;;;9.67;8.33;9.00;99.90;;;;;;4921027;29;8850;-64
2022/04/02 12:22:39;;;;;;;;;10.25;9.50;9.00;99.90;;;;;;4926747;29;8785;-63
2022/04/02 12:25:15;;;;;;;;;11.75;11.75;8.70;99.90;;;;;;4928191;29;8912;-63
2022/04/02 12:27:49;;;;;;;;;12.00;8.75;8.60;99.90;;;;;;4920643;29;8927;-62
2022/04/02 12:30:21;;;;;;;;;8.00;8.00;8.70;99.90;;;;;;4924641;29;8791;-62
2022/04/02 12:32:47;;;;;;;;;8.75;8.50;9.10;99.90;;;;;;4937061;29;8867;-64
2022/04/02 12:35:26;;;;;;;;;5.67;5.00;9.10;99.90;;;;;;4936940;29;8813;-64
2022/04/02 12:37:57;;;;;;;;;7.00;7.00;9.10;99.90;;;;;;4953432;28;8801;-64
2022/04/02 12:40:29;;;;;;;;;6.33;6.33;9.40;99.90;;;;;;4940461;29;8857;-63
2022/04/02 12:43:05;;;;;;;;;6.00;6.00;9.80;99.90;;;;;;4939596;29;8805;-64
2022/04/02 12:45:33;;;;;;;;;6.00;4.00;9.50;99.90;;;;;;4927769;29;8783;-65
2022/04/02 12:48:01;;;;;;;;;6.00;6.00;10.00;99.90;;;;;;4940174;29;8793;-64
2022/04/02 12:50:30;;;;;;;;;8.33;7.00;10.30;99.90;;;;;;4952059;28;8881;-66
2022/04/02 12:52:57;;;;;;;;;5.00;4.33;10.20;99.90;;;;;;4957590;28;8823;-64
2022/04/02 12:55:28;;;;;;;;;7.67;7.67;10.50;99.90;;;;;;4956848;28;8847;-65
2022/04/02 12:58:07;;;;;;;;;5.00;5.00;10.30;99.90;;;;;;4949924;28;8836;-65
2022/04/02 13:00:43;;;;;;;;;10.67;10.00;10.20;99.90;;;;;;4959223;28;8753;-66